Portada
METAR-TAF:

METAR-TAF

Aeroports :

Balkhash, Kazakhstan

latitud: 46-53-38N, longitud: 075-00-19E, altitud: 440 m

Observació

L'informe es va fer fa 35 minuts, a les 03:30 UTC
Vent 10 kt del Est/Nord-Est
Temperatura -11°C
Humitat 92%
Pressió 1034 hPa
Visibilitat 10 km o més
sense núvols per sota de 1500 mi sense presència de cumulonimbus.

METAR: UAAH 200330Z 07005MPS CAVOK M11/M12 Q1034 NOSIG RMK QFE738/0984

Hora: 10:05 (04:05 UTC)

Pronòstic

L'informe es va fer fa 2 hores i 4 minuts, a les 02:01 UTC
Pronòstic vàlid del 20 a les 03 UTC al 20 a les 12 UTC
Vent 10 kt del Est/Nord-Est
Visibilitat 10 km o més
Núvols disperses a una alçada de 5000 ft

TAF: UAAH 200201Z 2003/2012 06005MPS 9999 SCT050

Observacions i pronòstics meteorològics de més de 4000 aeroports (METAR i TAF).

Les estacions disponibles són els punts grocs i vermells al mapa.

Posi el ratolí al punt desitjat per veure el nom de l'estació.

Feu clic per veure les observacions i els pronòstics meteorològics.

Per canviar el mapa: feu clic els botons verds amb una creu de color negre per apropar; al botó verd amb un guió per allunyar la imatge; o en les fletxes verdes per a mapes adjacents.


METAR-TAF: